createdAt,value
2022-10-30T00:00:41.991Z,93969.00
2022-10-30T00:03:13.197Z,93966.00
2022-10-30T00:05:42.280Z,93963.94
2022-10-30T00:08:11.242Z,93972.75
2022-10-30T00:10:38.150Z,93961.88
2022-10-30T00:13:05.332Z,93958.47
2022-10-30T00:15:32.437Z,93940.75
2022-10-30T00:17:59.487Z,93959.66
2022-10-30T00:20:26.747Z,93938.75
2022-10-30T00:22:53.818Z,93948.69
2022-10-30T00:25:20.765Z,93949.53
2022-10-30T00:27:47.508Z,93927.72
2022-10-30T00:30:15.486Z,93955.84
2022-10-30T00:32:45.590Z,93952.09
2022-10-30T00:35:12.433Z,93924.81
2022-10-30T00:37:39.361Z,93941.25
2022-10-30T00:40:06.896Z,93944.22
2022-10-30T00:42:33.985Z,93943.25
2022-10-30T00:45:01.816Z,93944.09
2022-10-30T00:47:43.230Z,93941.94
2022-10-30T00:50:30.664Z,93933.84
2022-10-30T00:53:07.169Z,93937.03
2022-10-30T00:55:43.552Z,93924.34
2022-10-30T00:58:15.498Z,93921.22
2022-10-30T01:00:48.718Z,93916.81
2022-10-30T01:03:18.903Z,93910.75
2022-10-30T01:05:51.882Z,93924.88
2022-10-30T01:08:19.347Z,93917.03
2022-10-30T01:10:48.167Z,93887.19
2022-10-30T01:13:15.832Z,93914.66
2022-10-30T01:16:00.176Z,93902.59
2022-10-30T01:18:35.446Z,93899.72
2022-10-30T01:21:11.867Z,93906.75
2022-10-30T01:24:13.943Z,93894.09
2022-10-30T01:27:13.899Z,93889.38
2022-10-30T01:29:58.748Z,93901.22
2022-10-30T01:32:40.643Z,93889.69
2022-10-30T01:35:07.654Z,93895.47
2022-10-30T01:37:45.891Z,93904.50
2022-10-30T01:40:17.773Z,93876.50
2022-10-30T01:42:46.710Z,93887.25
2022-10-30T01:45:26.797Z,93875.16
2022-10-30T01:48:05.669Z,93884.41
2022-10-30T01:51:22.829Z,93886.56
2022-10-30T01:54:26.313Z,93886.97
2022-10-30T01:57:16.098Z,93882.88
2022-10-30T01:59:54.021Z,93877.56
2022-10-30T02:02:22.450Z,93874.91
2022-10-30T02:04:50.220Z,93867.69
2022-10-30T02:07:17.283Z,93877.88
2022-10-30T02:09:44.483Z,93874.56
2022-10-30T02:12:11.576Z,93883.03
2022-10-30T02:14:43.019Z,93877.81
2022-10-30T02:17:11.643Z,93882.59
2022-10-30T02:19:38.814Z,93862.41
2022-10-30T02:22:05.884Z,93883.13
2022-10-30T02:24:33.579Z,93874.84
2022-10-30T02:27:00.854Z,93874.38
2022-10-30T02:29:27.961Z,93869.13
2022-10-30T02:31:54.887Z,93867.28
2022-10-30T02:34:21.896Z,93869.47
2022-10-30T02:36:48.716Z,93867.78
2022-10-30T02:39:15.787Z,93859.63
2022-10-30T02:41:42.527Z,93839.94
2022-10-30T02:44:09.401Z,93865.03
2022-10-30T02:46:36.450Z,93849.84
2022-10-30T02:49:03.602Z,93852.16
2022-10-30T02:51:33.528Z,93859.63
2022-10-30T02:54:00.842Z,93837.94
2022-10-30T02:56:27.826Z,93861.19
2022-10-30T02:58:56.208Z,93853.25
2022-10-30T03:01:23.450Z,93864.25
2022-10-30T03:03:51.183Z,93865.56
2022-10-30T03:06:18.225Z,93847.63
2022-10-30T03:08:45.052Z,93821.94
2022-10-30T03:11:16.912Z,93859.41
2022-10-30T03:13:45.573Z,93864.06
2022-10-30T03:16:13.621Z,93856.69
2022-10-30T03:18:40.778Z,93859.16
2022-10-30T03:21:10.371Z,93859.69
2022-10-30T03:23:37.732Z,93842.72
2022-10-30T03:26:05.170Z,93866.53
2022-10-30T03:28:32.827Z,93870.63
2022-10-30T03:31:05.991Z,93860.34
2022-10-30T03:33:33.431Z,93849.19
2022-10-30T03:36:01.928Z,93852.81
2022-10-30T03:38:30.052Z,93839.22
2022-10-30T03:40:56.829Z,93872.81
2022-10-30T03:43:23.815Z,93871.72
2022-10-30T03:45:53.124Z,93871.56
2022-10-30T03:48:23.472Z,93871.31
2022-10-30T03:50:53.432Z,93841.66
2022-10-30T03:53:20.330Z,93878.84
2022-10-30T03:55:47.070Z,93873.13
2022-10-30T03:58:14.077Z,93852.03
2022-10-30T04:00:41.126Z,93872.47
2022-10-30T04:03:09.392Z,93873.66
2022-10-30T04:05:37.452Z,93870.84
2022-10-30T04:08:07.473Z,93869.94
2022-10-30T04:10:34.996Z,93862.81
2022-10-30T04:13:03.753Z,93874.47
2022-10-30T04:15:30.863Z,93860.34
2022-10-30T04:17:58.173Z,93873.16
2022-10-30T04:20:26.399Z,93872.19
2022-10-30T04:23:01.519Z,93866.13
2022-10-30T04:25:29.169Z,93870.06
2022-10-30T04:27:56.618Z,93877.38
2022-10-30T04:30:25.526Z,93883.22
2022-10-30T04:32:55.802Z,93871.38
2022-10-30T04:35:27.020Z,93877.28
2022-10-30T04:37:58.453Z,93880.06
2022-10-30T04:40:26.385Z,93881.28
2022-10-30T04:42:53.442Z,93872.84
2022-10-30T04:45:20.462Z,93879.50
2022-10-30T04:47:47.606Z,93866.13
2022-10-30T04:50:15.133Z,93868.25
2022-10-30T04:52:42.156Z,93810.19
2022-10-30T04:55:11.098Z,93880.09
2022-10-30T04:57:38.198Z,93880.94
2022-10-30T05:00:06.759Z,93868.78
2022-10-30T05:02:37.051Z,93877.53
2022-10-30T05:05:04.745Z,93863.06
2022-10-30T05:07:31.762Z,93870.53
2022-10-30T05:09:58.733Z,93864.06
2022-10-30T05:12:25.900Z,93859.25
2022-10-30T05:14:52.935Z,93846.97
2022-10-30T05:17:20.242Z,93855.56
2022-10-30T05:19:47.297Z,93855.78
2022-10-30T05:22:14.565Z,93836.81
2022-10-30T05:24:41.614Z,93854.75
2022-10-30T05:27:08.417Z,93848.84
2022-10-30T05:29:35.510Z,93850.25
2022-10-30T05:32:02.567Z,93846.66
2022-10-30T05:34:29.373Z,93823.41
2022-10-30T05:36:56.202Z,93848.53
2022-10-30T05:39:23.215Z,93845.50
2022-10-30T05:41:50.275Z,93847.53
2022-10-30T05:44:28.794Z,93820.91
2022-10-30T05:47:01.545Z,93847.91
2022-10-30T05:49:28.499Z,93845.44
2022-10-30T05:51:55.219Z,93851.19
2022-10-30T05:54:21.948Z,93824.75
2022-10-30T05:56:48.577Z,93843.44
2022-10-30T05:59:15.245Z,93834.13
2022-10-30T06:01:41.997Z,93840.34
2022-10-30T06:04:09.462Z,93844.56
2022-10-30T06:06:36.310Z,93837.72
2022-10-30T06:09:03.095Z,93839.81
2022-10-30T06:11:29.841Z,93846.09
2022-10-30T06:13:56.616Z,93844.72
2022-10-30T06:16:23.467Z,93842.22
2022-10-30T06:18:50.192Z,93822.06
2022-10-30T06:21:17.013Z,93851.84
2022-10-30T06:23:43.706Z,93834.59
2022-10-30T06:26:10.390Z,93832.25
2022-10-30T06:28:37.119Z,93839.78
2022-10-30T06:31:05.204Z,93845.78
2022-10-30T06:33:31.962Z,93825.00
2022-10-30T06:35:58.711Z,93853.47
2022-10-30T06:38:25.957Z,93853.31
2022-10-30T06:40:52.590Z,93844.72
2022-10-30T06:43:19.371Z,93850.66
2022-10-30T06:45:46.251Z,93857.63
2022-10-30T06:48:12.902Z,93853.41
2022-10-30T06:50:39.662Z,93836.81
2022-10-30T06:53:06.340Z,93830.44
2022-10-30T06:55:33.151Z,93862.19
2022-10-30T06:58:00.215Z,93861.19
2022-10-30T07:00:27.157Z,93864.66
2022-10-30T07:03:02.111Z,93866.66
2022-10-30T07:05:29.287Z,93867.91
2022-10-30T07:07:57.461Z,93858.31
2022-10-30T07:10:24.310Z,93859.59
2022-10-30T07:12:52.612Z,93862.03
2022-10-30T07:15:19.409Z,93842.72
2022-10-30T07:17:57.801Z,93863.75
2022-10-30T07:20:27.059Z,93864.19
2022-10-30T07:22:54.428Z,93859.47
2022-10-30T07:25:21.390Z,93867.91
2022-10-30T07:27:50.339Z,93870.88
2022-10-30T07:30:19.587Z,93879.44
2022-10-30T07:32:46.639Z,93863.28
2022-10-30T07:35:14.426Z,93869.56
2022-10-30T07:37:41.332Z,93852.00
2022-10-30T07:40:12.438Z,93863.81
2022-10-30T07:42:39.569Z,93873.56
2022-10-30T07:45:06.896Z,93871.00
2022-10-30T07:47:33.638Z,93863.34
2022-10-30T07:50:00.361Z,93865.09
2022-10-30T07:52:32.421Z,93859.22
2022-10-30T07:54:59.348Z,93861.03
2022-10-30T07:57:26.135Z,93858.69
2022-10-30T07:59:52.852Z,93863.25
2022-10-30T08:02:20.273Z,93868.19
2022-10-30T08:04:47.190Z,93881.69
2022-10-30T08:07:13.931Z,93885.69
2022-10-30T08:09:40.639Z,93851.63
2022-10-30T08:12:07.757Z,93875.22
2022-10-30T08:14:34.893Z,93871.78
2022-10-30T08:17:01.656Z,93872.66
2022-10-30T08:19:28.426Z,93872.91
2022-10-30T08:21:59.221Z,93871.13
2022-10-30T08:24:26.803Z,93859.38
2022-10-30T08:26:54.034Z,93862.25
2022-10-30T08:29:20.757Z,93858.38
2022-10-30T08:31:51.094Z,93859.41
2022-10-30T08:34:17.685Z,93859.41
2022-10-30T08:36:46.864Z,93845.47
2022-10-30T08:39:17.522Z,93864.25
2022-10-30T08:41:45.081Z,93854.88
2022-10-30T08:44:12.125Z,93852.59
2022-10-30T08:46:38.789Z,93861.41
2022-10-30T08:49:05.635Z,93864.72
2022-10-30T08:51:33.737Z,93863.50
2022-10-30T08:54:00.638Z,93848.97
2022-10-30T08:56:27.956Z,93865.97
2022-10-30T08:58:54.626Z,93857.38
2022-10-30T09:01:21.379Z,93864.75
2022-10-30T09:03:48.114Z,93853.69
2022-10-30T09:06:14.779Z,93830.31
2022-10-30T09:08:41.494Z,93859.00
2022-10-30T09:11:08.188Z,93852.81
2022-10-30T09:13:35.611Z,93854.03
2022-10-30T09:16:03.718Z,93855.06
2022-10-30T09:18:30.802Z,93843.44
2022-10-30T09:20:57.458Z,93855.28
2022-10-30T09:23:24.187Z,93840.50
2022-10-30T09:25:50.871Z,93855.25
2022-10-30T09:28:17.469Z,93845.69
2022-10-30T09:30:44.138Z,93828.84
2022-10-30T09:33:10.824Z,93845.06
2022-10-30T09:35:37.549Z,93850.88
2022-10-30T09:38:04.231Z,93849.88
2022-10-30T09:40:55.651Z,93848.56
2022-10-30T09:43:54.437Z,93849.69
2022-10-30T09:46:42.977Z,93854.09
2022-10-30T09:49:35.232Z,93839.19
2022-10-30T09:52:33.637Z,93841.19
2022-10-30T09:55:15.443Z,93847.38
2022-10-30T09:58:19.560Z,93844.38
2022-10-30T10:00:54.415Z,93845.91
2022-10-30T10:06:20.446Z,93837.44
2022-10-30T10:09:12.843Z,93845.56
2022-10-30T10:11:45.239Z,93827.81
2022-10-30T10:14:19.519Z,93841.34
2022-10-30T10:16:51.798Z,93837.34
2022-10-30T10:19:27.160Z,93847.22
2022-10-30T10:22:03.545Z,93831.25
2022-10-30T10:24:33.901Z,93844.34
2022-10-30T10:27:08.818Z,93847.22
2022-10-30T10:30:00.256Z,93847.50
2022-10-30T10:32:40.727Z,93840.88
2022-10-30T10:35:28.348Z,93837.56
2022-10-30T10:38:21.268Z,93839.19
2022-10-30T10:41:25.115Z,93828.94
2022-10-30T10:44:00.810Z,93833.94
2022-10-30T10:46:39.535Z,93827.09
2022-10-30T10:49:19.952Z,93815.56
2022-10-30T10:52:11.832Z,93796.53
2022-10-30T10:54:44.213Z,93823.59
2022-10-30T10:57:29.000Z,93820.09
2022-10-30T11:00:20.787Z,93793.50
2022-10-30T11:02:56.046Z,93809.94
2022-10-30T11:05:46.635Z,93806.44
2022-10-30T11:08:28.914Z,93805.47
2022-10-30T11:11:06.086Z,93797.81
2022-10-30T11:13:36.917Z,93802.13
2022-10-30T11:16:17.571Z,93814.72
2022-10-30T11:18:46.908Z,93788.81
2022-10-30T11:21:18.953Z,93808.00
2022-10-30T11:23:47.702Z,93799.69
2022-10-30T11:26:17.202Z,93686.03
2022-10-30T11:28:56.447Z,93806.00
2022-10-30T11:31:40.317Z,93797.69
2022-10-30T11:34:18.973Z,93794.78
2022-10-30T11:36:50.551Z,93786.78
2022-10-30T11:39:24.488Z,93789.47
2022-10-30T11:42:17.264Z,93787.03
2022-10-30T11:44:51.304Z,93800.69
2022-10-30T11:47:23.001Z,93786.13
2022-10-30T11:49:56.693Z,93780.97
2022-10-30T11:52:25.647Z,93783.38
2022-10-30T11:55:18.115Z,93782.47
2022-10-30T11:57:55.045Z,93783.03
2022-10-30T12:00:31.264Z,93781.16
2022-10-30T12:03:03.574Z,93774.31
2022-10-30T12:05:30.360Z,93776.56
2022-10-30T12:08:09.196Z,93780.09
2022-10-30T12:10:45.581Z,93764.53
2022-10-30T12:13:18.135Z,93773.06
2022-10-30T12:15:47.118Z,93772.38
2022-10-30T12:18:22.967Z,93768.84
2022-10-30T12:20:53.937Z,93772.84
2022-10-30T12:23:25.753Z,93771.78
2022-10-30T12:25:55.853Z,93776.03
2022-10-30T12:28:29.239Z,93773.09
2022-10-30T12:31:23.554Z,93768.66
2022-10-30T12:34:01.741Z,93742.31
2022-10-30T12:36:37.027Z,93767.88
2022-10-30T12:39:15.546Z,93762.00
2022-10-30T12:42:07.902Z,93753.06
2022-10-30T12:44:48.873Z,93750.59
2022-10-30T12:47:30.783Z,93750.22
2022-10-30T12:50:24.881Z,93733.41
2022-10-30T12:53:00.934Z,93734.81
2022-10-30T12:55:41.146Z,93735.69
2022-10-30T12:58:28.073Z,93742.47
2022-10-30T13:01:26.946Z,93734.94
2022-10-30T13:04:06.184Z,93739.91
2022-10-30T13:06:42.303Z,93725.97
2022-10-30T13:09:24.070Z,93716.44
2022-10-30T13:12:08.485Z,93714.56
2022-10-30T13:14:52.554Z,93714.03
2022-10-30T13:17:19.242Z,93722.22
2022-10-30T13:19:47.270Z,93718.41
2022-10-30T13:22:27.715Z,93704.28
2022-10-30T13:25:14.174Z,93717.00
2022-10-30T13:28:16.223Z,93717.59
2022-10-30T13:30:59.278Z,93705.59
2022-10-30T13:33:40.041Z,93715.47
2022-10-30T13:36:09.609Z,93712.41
2022-10-30T13:39:03.681Z,93707.69
2022-10-30T13:41:42.363Z,93722.38
2022-10-30T13:44:17.607Z,93709.78
2022-10-30T13:46:58.883Z,93706.19
2022-10-30T13:50:09.897Z,93700.28
2022-10-30T13:52:42.923Z,93706.44
2022-10-30T13:55:29.648Z,93703.78
2022-10-30T13:58:23.035Z,93709.47
2022-10-30T14:00:59.451Z,93697.38
2022-10-30T14:03:44.400Z,93711.50
2022-10-30T14:06:24.314Z,93712.81
2022-10-30T14:09:21.954Z,93707.13
2022-10-30T14:11:48.677Z,93715.78
2022-10-30T14:14:24.264Z,93708.16
2022-10-30T14:17:16.982Z,93702.81
2022-10-30T14:20:10.559Z,93702.13
2022-10-30T14:22:40.377Z,93694.63
2022-10-30T14:25:15.658Z,93701.03
2022-10-30T14:27:42.765Z,93694.66
2022-10-30T14:30:19.238Z,93707.81
2022-10-30T14:32:51.094Z,93711.41
2022-10-30T14:35:38.626Z,93712.16
2022-10-30T14:38:07.899Z,93723.84
2022-10-30T14:41:08.401Z,93724.75
2022-10-30T14:43:52.509Z,93647.56
2022-10-30T14:46:35.950Z,93728.34
2022-10-30T14:49:07.299Z,93733.81
2022-10-30T14:51:45.315Z,93735.59
2022-10-30T14:54:53.289Z,93734.72
2022-10-30T14:57:45.034Z,93745.38
2022-10-30T15:00:23.627Z,93743.25
2022-10-30T15:03:21.050Z,93737.59
2022-10-30T15:06:02.359Z,93730.06
2022-10-30T15:09:19.527Z,93737.81
2022-10-30T15:12:00.181Z,93730.47
2022-10-30T15:14:53.650Z,93719.13
2022-10-30T15:17:27.167Z,93720.44
2022-10-30T15:19:54.050Z,93719.63
2022-10-30T15:22:23.455Z,93723.72
2022-10-30T15:24:51.584Z,93730.13
2022-10-30T15:27:21.221Z,93722.81
2022-10-30T15:29:57.926Z,93722.94
2022-10-30T15:32:25.568Z,93728.94
2022-10-30T15:35:03.209Z,93733.00
2022-10-30T15:37:30.622Z,93716.81
2022-10-30T15:40:30.135Z,93725.38
2022-10-30T15:42:59.730Z,93724.22
2022-10-30T15:45:46.860Z,93715.91
2022-10-30T15:48:33.032Z,93716.97
2022-10-30T15:51:05.818Z,93709.00
2022-10-30T15:53:41.019Z,93721.75
2022-10-30T15:56:28.047Z,93718.16
2022-10-30T15:59:02.172Z,93723.50
2022-10-30T16:01:34.611Z,93721.84
2022-10-30T16:04:01.699Z,93725.69
2022-10-30T16:06:30.937Z,93734.47
2022-10-30T16:08:57.991Z,93725.88
2022-10-30T16:11:26.669Z,93717.91
2022-10-30T16:13:53.570Z,93720.50
2022-10-30T16:16:27.446Z,93723.75
2022-10-30T16:18:59.739Z,93724.78
2022-10-30T16:21:30.875Z,93734.03
2022-10-30T16:24:00.873Z,93730.28
2022-10-30T16:26:34.879Z,93728.50
2022-10-30T16:29:10.266Z,93731.59
2022-10-30T16:31:37.881Z,93734.41
2022-10-30T16:34:09.466Z,93736.88
2022-10-30T16:36:36.628Z,93742.44
2022-10-30T16:39:03.727Z,93746.41
2022-10-30T16:41:31.836Z,93739.09
2022-10-30T16:44:19.011Z,93740.66
2022-10-30T16:47:16.411Z,93738.56
2022-10-30T16:49:49.752Z,93749.81
2022-10-30T16:52:17.269Z,93748.53
2022-10-30T16:54:58.000Z,93742.53
2022-10-30T16:57:31.415Z,93758.97
2022-10-30T16:59:59.799Z,93744.97
2022-10-30T17:02:32.600Z,93758.28
2022-10-30T17:05:17.122Z,93754.00
2022-10-30T17:08:02.463Z,93762.66
2022-10-30T17:10:44.714Z,93760.84
2022-10-30T17:13:53.157Z,93771.09
2022-10-30T17:16:26.113Z,93768.06
2022-10-30T17:18:54.265Z,93774.66
2022-10-30T17:21:44.184Z,93776.72
2022-10-30T17:24:31.924Z,93784.09
2022-10-30T17:27:07.010Z,93773.84
2022-10-30T17:29:36.788Z,93789.00
2022-10-30T17:32:20.219Z,93787.78
2022-10-30T17:34:47.865Z,93790.22
2022-10-30T17:37:14.506Z,93789.81
2022-10-30T17:39:41.377Z,93783.69
2022-10-30T17:42:10.176Z,93786.56
2022-10-30T17:44:37.276Z,93791.25
2022-10-30T17:47:19.096Z,93798.22
2022-10-30T17:49:46.813Z,93790.44
2022-10-30T17:52:14.897Z,93795.13
2022-10-30T17:54:42.288Z,93790.16
2022-10-30T17:57:13.367Z,93799.97
2022-10-30T17:59:40.709Z,93787.22
2022-10-30T18:02:15.619Z,93814.69
2022-10-30T18:04:43.347Z,93805.88
2022-10-30T18:07:14.926Z,93807.47
2022-10-30T18:09:42.327Z,93810.56
2022-10-30T18:12:13.966Z,93790.44
2022-10-30T18:14:40.749Z,93821.72
2022-10-30T18:17:07.388Z,93819.44
2022-10-30T18:19:33.999Z,93803.03
2022-10-30T18:22:00.700Z,93811.34
2022-10-30T18:24:27.416Z,93832.63
2022-10-30T18:26:54.847Z,93828.69
2022-10-30T18:29:21.551Z,93838.94
2022-10-30T18:31:48.181Z,93813.19
2022-10-30T18:34:19.502Z,93849.84
2022-10-30T18:36:46.004Z,93851.38
2022-10-30T18:39:13.385Z,93830.28
2022-10-30T18:41:43.163Z,93844.41
2022-10-30T18:44:14.056Z,93859.59
2022-10-30T18:46:40.818Z,93853.88
2022-10-30T18:49:07.507Z,93860.03
2022-10-30T18:51:34.154Z,93865.53
2022-10-30T18:54:00.867Z,93856.16
2022-10-30T18:56:29.866Z,93865.63
2022-10-30T18:59:00.658Z,93854.88
2022-10-30T19:01:30.721Z,93861.91
2022-10-30T19:04:00.765Z,93853.28
2022-10-30T19:06:27.671Z,93860.84
2022-10-30T19:08:54.426Z,93861.03
2022-10-30T19:11:24.674Z,93838.53
2022-10-30T19:13:53.548Z,93875.75
2022-10-30T19:16:22.036Z,93870.66
2022-10-30T19:18:48.927Z,93876.84
2022-10-30T19:21:18.449Z,93887.72
2022-10-30T19:23:45.433Z,93883.59
2022-10-30T19:26:14.460Z,93884.38
2022-10-30T19:28:41.582Z,93876.38
2022-10-30T19:31:13.237Z,93877.63
2022-10-30T19:33:39.881Z,93871.81
2022-10-30T19:36:06.852Z,93889.03
2022-10-30T19:38:34.046Z,93865.75
2022-10-30T19:41:01.055Z,93887.88
2022-10-30T19:43:27.743Z,93887.09
2022-10-30T19:45:56.878Z,93883.19
2022-10-30T19:48:55.346Z,93892.97
2022-10-30T19:51:11.891Z,93881.41
2022-10-30T19:53:39.903Z,93868.53
2022-10-30T19:56:07.124Z,93885.56
2022-10-30T19:58:33.839Z,93894.50
2022-10-30T20:01:00.489Z,93897.09
2022-10-30T20:03:27.286Z,93897.00
2022-10-30T20:05:55.675Z,93901.38
2022-10-30T20:08:24.769Z,93901.78
2022-10-30T20:10:56.743Z,93901.78
2022-10-30T20:13:25.112Z,93911.00
2022-10-30T20:15:53.161Z,93899.97
2022-10-30T20:18:23.377Z,93912.78
2022-10-30T20:20:55.086Z,93887.63
2022-10-30T20:23:23.078Z,93912.56
2022-10-30T20:25:52.174Z,93914.38
2022-10-30T20:28:28.820Z,93910.41
2022-10-30T20:30:55.596Z,93922.53
2022-10-30T20:33:22.776Z,93897.91
2022-10-30T20:35:50.340Z,93922.16
2022-10-30T20:38:31.430Z,93925.97
2022-10-30T20:41:00.033Z,93928.53
2022-10-30T20:43:35.928Z,93918.38
2022-10-30T20:46:04.557Z,93924.19
2022-10-30T20:48:31.601Z,93920.09
2022-10-30T20:51:00.021Z,93929.75
2022-10-30T20:53:27.139Z,93928.00
2022-10-30T20:55:53.888Z,93913.28
2022-10-30T20:58:20.851Z,93926.53
2022-10-30T21:00:47.813Z,93907.47
2022-10-30T21:03:15.579Z,93931.94
2022-10-30T21:05:45.632Z,93931.38
2022-10-30T21:08:15.916Z,93939.31
2022-10-30T21:10:42.714Z,93936.41
2022-10-30T21:13:11.215Z,93911.59
2022-10-30T21:15:42.833Z,93944.34
2022-10-30T21:18:12.559Z,93936.59
2022-10-30T21:20:40.974Z,93915.59
2022-10-30T21:23:08.216Z,93940.31
2022-10-30T21:25:35.730Z,93945.59
2022-10-30T21:28:02.523Z,93907.91
2022-10-30T21:30:29.181Z,93937.50
2022-10-30T21:32:55.808Z,93936.03
2022-10-30T21:35:22.459Z,93930.53
2022-10-30T21:37:49.282Z,93914.31
2022-10-30T21:40:16.026Z,93934.31
2022-10-30T21:42:42.675Z,93942.25
2022-10-30T21:45:10.015Z,93936.38
2022-10-30T21:47:36.733Z,93927.63
2022-10-30T21:50:07.723Z,93928.72
2022-10-30T21:52:36.116Z,93927.47
2022-10-30T21:55:02.968Z,93926.53
2022-10-30T21:57:29.691Z,93929.72
2022-10-30T21:59:58.850Z,93927.63
2022-10-30T22:02:29.187Z,93928.56
2022-10-30T22:04:55.921Z,93931.56
2022-10-30T22:07:22.546Z,93902.47
2022-10-30T22:09:49.458Z,93930.75
2022-10-30T22:12:16.050Z,93925.44
2022-10-30T22:14:42.683Z,93915.59
2022-10-30T22:17:09.367Z,93922.44
2022-10-30T22:19:36.020Z,93926.63
2022-10-30T22:22:02.659Z,93926.34
2022-10-30T22:24:29.226Z,93925.91
2022-10-30T22:26:55.822Z,93915.22
2022-10-30T22:29:22.369Z,93925.25
2022-10-30T22:31:49.694Z,93912.00
2022-10-30T22:34:16.307Z,93896.03
2022-10-30T22:36:42.967Z,93932.47
2022-10-30T22:39:13.750Z,93937.03
2022-10-30T22:41:41.236Z,93927.38
2022-10-30T22:44:12.196Z,93924.25
2022-10-30T22:46:39.207Z,93918.19
2022-10-30T22:49:06.766Z,93926.38
2022-10-30T22:51:35.968Z,93918.69
2022-10-30T22:54:04.392Z,93922.09
2022-10-30T22:56:33.253Z,93919.81
2022-10-30T22:59:02.362Z,93911.22
2022-10-30T23:01:31.582Z,93920.97
2022-10-30T23:04:00.180Z,93918.34
2022-10-30T23:06:28.232Z,93916.81
2022-10-30T23:08:57.458Z,93918.34
2022-10-30T23:11:24.703Z,93911.88
2022-10-30T23:13:51.368Z,93910.13
2022-10-30T23:16:20.688Z,93908.16
2022-10-30T23:18:48.019Z,93907.13
2022-10-30T23:21:20.166Z,93904.47
2022-10-30T23:23:47.154Z,93912.00
2022-10-30T23:26:18.427Z,93909.28
2022-10-30T23:28:46.270Z,93909.72
2022-10-30T23:31:29.898Z,93908.66
2022-10-30T23:33:59.400Z,93895.66
2022-10-30T23:36:26.792Z,93901.47
2022-10-30T23:38:55.040Z,93906.00
2022-10-30T23:41:23.097Z,93904.44
2022-10-30T23:43:53.833Z,93881.97
2022-10-30T23:46:20.647Z,93880.44
2022-10-30T23:48:47.218Z,93909.03
2022-10-30T23:51:14.192Z,93910.78
2022-10-30T23:53:40.922Z,93900.38
2022-10-30T23:56:08.403Z,93917.38
2022-10-30T23:58:34.994Z,93918.22
